Wattsburg, Pennsylvania
Current Conditions -  °F | °C
As of 8:43 AM on Friday 28 Nov 2014 (Local Time) from KERI Reporting Station
Overcast Overcast  
Wind Chill: 15°   Ceiling: 3200
Heat Index: 25°   Visibility: 9mi
Dew Point: 13°   Wind: 10mph
Humidity: 60%   Direction: 280°W
Pressure: 30.3"   Gusts: NA
Location:  42°N, 79.81°W
Report Text: KERI 281343Z 28009KT 9SM OVC032 M04/M11 A3030 RMK AO2 SNB06E17 P0000 T10391106 $
Loading
Personal Weather Stations






























Interactive Weather Map New forecast layout! Learn more

10-Day Weather Forecast

Advertisements
Track Severe Weather on mobile